sensor_id;sensor_type;location;lat;lon;timestamp;P1;durP1;ratioP1;P2;durP2;ratioP2
20814;SDS011;10568;48.176;16.316;2023-03-01T00:02:20;16.30;;;7.07;;
20814;SDS011;10568;48.176;16.316;2023-03-01T00:04:46;16.70;;;7.33;;
20814;SDS011;10568;48.176;16.316;2023-03-01T00:07:12;12.70;;;7.03;;
20814;SDS011;10568;48.176;16.316;2023-03-01T00:09:38;18.03;;;6.97;;
20814;SDS011;10568;48.176;16.316;2023-03-01T00:12:05;15.27;;;7.93;;
20814;SDS011;10568;48.176;16.316;2023-03-01T00:14:31;11.77;;;7.17;;
20814;SDS011;10568;48.176;16.316;2023-03-01T00:16:57;15.47;;;7.93;;
20814;SDS011;10568;48.176;16.316;2023-03-01T00:19:23;15.50;;;7.10;;
20814;SDS011;10568;48.176;16.316;2023-03-01T00:21:49;10.37;;;6.60;;
20814;SDS011;10568;48.176;16.316;2023-03-01T00:24:15;18.63;;;7.73;;
20814;SDS011;10568;48.176;16.316;2023-03-01T00:26:41;15.27;;;6.87;;
20814;SDS011;10568;48.176;16.316;2023-03-01T00:29:07;14.67;;;6.77;;
20814;SDS011;10568;48.176;16.316;2023-03-01T00:31:33;14.17;;;6.33;;
20814;SDS011;10568;48.176;16.316;2023-03-01T00:34:00;10.87;;;6.17;;
20814;SDS011;10568;48.176;16.316;2023-03-01T00:36:29;16.47;;;7.43;;
20814;SDS011;10568;48.176;16.316;2023-03-01T00:38:57;15.77;;;7.53;;
20814;SDS011;10568;48.176;16.316;2023-03-01T00:41:23;11.40;;;6.73;;
20814;SDS011;10568;48.176;16.316;2023-03-01T00:43:51;12.60;;;6.93;;
20814;SDS011;10568;48.176;16.316;2023-03-01T00:46:19;14.30;;;6.17;;
20814;SDS011;10568;48.176;16.316;2023-03-01T00:48:46;10.33;;;6.27;;
20814;SDS011;10568;48.176;16.316;2023-03-01T00:51:19;10.63;;;6.50;;
20814;SDS011;10568;48.176;16.316;2023-03-01T00:53:47;10.87;;;5.80;;
20814;SDS011;10568;48.176;16.316;2023-03-01T00:56:16;15.57;;;6.93;;
20814;SDS011;10568;48.176;16.316;2023-03-01T00:58:43;12.07;;;6.50;;
20814;SDS011;10568;48.176;16.316;2023-03-01T01:01:09;12.73;;;7.27;;
20814;SDS011;10568;48.176;16.316;2023-03-01T01:03:48;14.67;;;6.77;;
20814;SDS011;10568;48.176;16.316;2023-03-01T01:06:20;8.17;;;5.77;;
20814;SDS011;10568;48.176;16.316;2023-03-01T01:08:54;13.10;;;7.10;;
20814;SDS011;10568;48.176;16.316;2023-03-01T01:11:21;10.47;;;6.53;;
20814;SDS011;10568;48.176;16.316;2023-03-01T01:13:48;10.60;;;5.77;;
20814;SDS011;10568;48.176;16.316;2023-03-01T01:16:14;12.27;;;6.30;;
20814;SDS011;10568;48.176;16.316;2023-03-01T01:18:40;13.67;;;6.83;;
20814;SDS011;10568;48.176;16.316;2023-03-01T01:21:11;9.30;;;5.73;;
20814;SDS011;10568;48.176;16.316;2023-03-01T01:23:38;16.07;;;7.70;;
20814;SDS011;10568;48.176;16.316;2023-03-01T01:26:06;11.73;;;7.03;;
20814;SDS011;10568;48.176;16.316;2023-03-01T01:28:37;13.43;;;7.33;;
20814;SDS011;10568;48.176;16.316;2023-03-01T01:31:03;10.37;;;6.33;;
20814;SDS011;10568;48.176;16.316;2023-03-01T01:33:30;12.03;;;7.00;;
20814;SDS011;10568;48.176;16.316;2023-03-01T01:35:56;13.60;;;6.70;;
20814;SDS011;10568;48.176;16.316;2023-03-01T01:38:22;9.43;;;5.53;;
20814;SDS011;10568;48.176;16.316;2023-03-01T01:40:48;13.00;;;7.27;;
20814;SDS011;10568;48.176;16.316;2023-03-01T01:43:28;13.70;;;7.23;;
20814;SDS011;10568;48.176;16.316;2023-03-01T01:46:00;13.47;;;6.33;;
20814;SDS011;10568;48.176;16.316;2023-03-01T01:48:32;16.30;;;6.87;;
20814;SDS011;10568;48.176;16.316;2023-03-01T01:51:05;12.40;;;6.60;;
20814;SDS011;10568;48.176;16.316;2023-03-01T01:53:35;12.00;;;6.97;;
20814;SDS011;10568;48.176;16.316;2023-03-01T01:56:02;14.30;;;6.80;;
20814;SDS011;10568;48.176;16.316;2023-03-01T01:58:31;15.03;;;7.43;;
20814;SDS011;10568;48.176;16.316;2023-03-01T02:00:57;11.53;;;7.43;;
20814;SDS011;10568;48.176;16.316;2023-03-01T02:03:26;12.83;;;7.07;;
20814;SDS011;10568;48.176;16.316;2023-03-01T02:09:04;14.73;;;7.37;;
20814;SDS011;10568;48.176;16.316;2023-03-01T02:11:34;8.03;;;4.97;;
20814;SDS011;10568;48.176;16.316;2023-03-01T02:14:02;12.03;;;6.70;;
20814;SDS011;10568;48.176;16.316;2023-03-01T02:16:29;14.67;;;7.00;;
20814;SDS011;10568;48.176;16.316;2023-03-01T02:18:56;10.37;;;6.80;;
20814;SDS011;10568;48.176;16.316;2023-03-01T02:26:50;14.73;;;7.90;;
20814;SDS011;10568;48.176;16.316;2023-03-01T02:29:19;12.80;;;7.20;;
20814;SDS011;10568;48.176;16.316;2023-03-01T02:31:47;19.17;;;7.40;;
20814;SDS011;10568;48.176;16.316;2023-03-01T02:34:14;14.50;;;8.03;;
20814;SDS011;10568;48.176;16.316;2023-03-01T02:36:44;13.27;;;7.13;;
20814;SDS011;10568;48.176;16.316;2023-03-01T02:39:42;11.80;;;6.20;;
20814;SDS011;10568;48.176;16.316;2023-03-01T02:42:14;12.63;;;5.90;;
20814;SDS011;10568;48.176;16.316;2023-03-01T02:44:43;15.73;;;7.00;;
20814;SDS011;10568;48.176;16.316;2023-03-01T02:47:09;16.10;;;7.57;;
20814;SDS011;10568;48.176;16.316;2023-03-01T02:49:36;13.97;;;7.67;;
20814;SDS011;10568;48.176;16.316;2023-03-01T02:55:11;14.00;;;6.97;;
20814;SDS011;10568;48.176;16.316;2023-03-01T02:57:40;15.70;;;7.77;;
20814;SDS011;10568;48.176;16.316;2023-03-01T03:00:15;13.63;;;7.43;;
20814;SDS011;10568;48.176;16.316;2023-03-01T03:02:48;12.90;;;6.60;;
20814;SDS011;10568;48.176;16.316;2023-03-01T03:05:23;15.70;;;6.87;;
20814;SDS011;10568;48.176;16.316;2023-03-01T03:07:53;8.93;;;5.80;;
20814;SDS011;10568;48.176;16.316;2023-03-01T03:10:20;15.43;;;7.47;;
20814;SDS011;10568;48.176;16.316;2023-03-01T03:12:49;14.17;;;7.80;;
20814;SDS011;10568;48.176;16.316;2023-03-01T03:15:16;15.03;;;7.20;;
20814;SDS011;10568;48.176;16.316;2023-03-01T03:17:42;11.50;;;6.77;;
20814;SDS011;10568;48.176;16.316;2023-03-01T03:20:09;11.13;;;7.40;;
20814;SDS011;10568;48.176;16.316;2023-03-01T03:22:38;12.50;;;6.17;;
20814;SDS011;10568;48.176;16.316;2023-03-01T03:25:05;12.73;;;6.87;;
20814;SDS011;10568;48.176;16.316;2023-03-01T03:27:35;14.07;;;7.60;;
20814;SDS011;10568;48.176;16.316;2023-03-01T03:30:03;19.10;;;7.93;;
20814;SDS011;10568;48.176;16.316;2023-03-01T03:32:36;13.63;;;7.53;;
20814;SDS011;10568;48.176;16.316;2023-03-01T03:35:03;17.20;;;8.43;;
20814;SDS011;10568;48.176;16.316;2023-03-01T03:37:40;15.77;;;7.83;;
20814;SDS011;10568;48.176;16.316;2023-03-01T03:40:25;14.67;;;7.13;;
20814;SDS011;10568;48.176;16.316;2023-03-01T03:42:52;11.57;;;6.70;;
20814;SDS011;10568;48.176;16.316;2023-03-01T03:45:17;14.80;;;8.17;;
20814;SDS011;10568;48.176;16.316;2023-03-01T03:47:44;13.37;;;7.23;;
20814;SDS011;10568;48.176;16.316;2023-03-01T03:50:13;16.57;;;7.57;;
20814;SDS011;10568;48.176;16.316;2023-03-01T03:52:41;14.90;;;7.30;;
20814;SDS011;10568;48.176;16.316;2023-03-01T03:55:07;13.57;;;8.07;;
20814;SDS011;10568;48.176;16.316;2023-03-01T03:57:35;14.67;;;7.70;;
20814;SDS011;10568;48.176;16.316;2023-03-01T04:00:05;12.73;;;7.23;;
20814;SDS011;10568;48.176;16.316;2023-03-01T04:02:44;13.33;;;7.17;;
20814;SDS011;10568;48.176;16.316;2023-03-01T04:05:12;19.80;;;8.77;;
20814;SDS011;10568;48.176;16.316;2023-03-01T04:07:40;21.03;;;8.53;;
20814;SDS011;10568;48.176;16.316;2023-03-01T04:10:07;15.70;;;7.60;;
20814;SDS011;10568;48.176;16.316;2023-03-01T04:12:35;16.63;;;7.77;;
20814;SDS011;10568;48.176;16.316;2023-03-01T04:15:02;13.60;;;8.17;;
20814;SDS011;10568;48.176;16.316;2023-03-01T04:17:41;14.67;;;8.10;;
20814;SDS011;10568;48.176;16.316;2023-03-01T04:20:09;18.40;;;8.73;;
20814;SDS011;10568;48.176;16.316;2023-03-01T04:22:36;18.23;;;8.97;;
20814;SDS011;10568;48.176;16.316;2023-03-01T04:25:03;17.80;;;9.30;;
20814;SDS011;10568;48.176;16.316;2023-03-01T04:27:32;14.70;;;7.83;;
20814;SDS011;10568;48.176;16.316;2023-03-01T04:29:59;17.63;;;9.13;;
20814;SDS011;10568;48.176;16.316;2023-03-01T04:32:24;18.27;;;9.03;;
20814;SDS011;10568;48.176;16.316;2023-03-01T04:35:08;19.00;;;8.87;;
20814;SDS011;10568;48.176;16.316;2023-03-01T04:37:34;17.07;;;8.50;;
20814;SDS011;10568;48.176;16.316;2023-03-01T04:40:00;16.27;;;8.67;;
20814;SDS011;10568;48.176;16.316;2023-03-01T04:42:37;17.23;;;8.23;;
20814;SDS011;10568;48.176;16.316;2023-03-01T04:45:03;16.37;;;8.40;;
20814;SDS011;10568;48.176;16.316;2023-03-01T04:47:38;22.47;;;10.07;;
20814;SDS011;10568;48.176;16.316;2023-03-01T04:50:07;18.37;;;9.23;;
20814;SDS011;10568;48.176;16.316;2023-03-01T04:52:34;17.27;;;9.43;;
20814;SDS011;10568;48.176;16.316;2023-03-01T04:55:01;17.90;;;9.27;;
20814;SDS011;10568;48.176;16.316;2023-03-01T04:57:27;18.07;;;8.23;;
20814;SDS011;10568;48.176;16.316;2023-03-01T04:59:52;18.00;;;9.87;;
20814;SDS011;10568;48.176;16.316;2023-03-01T05:02:18;17.03;;;7.50;;
20814;SDS011;10568;48.176;16.316;2023-03-01T05:04:44;20.30;;;9.73;;
20814;SDS011;10568;48.176;16.316;2023-03-01T05:07:10;17.50;;;9.10;;
20814;SDS011;10568;48.176;16.316;2023-03-01T05:09:38;22.07;;;9.73;;
20814;SDS011;10568;48.176;16.316;2023-03-01T05:12:04;22.73;;;10.23;;
20814;SDS011;10568;48.176;16.316;2023-03-01T05:14:30;16.20;;;8.93;;
20814;SDS011;10568;48.176;16.316;2023-03-01T05:16:55;23.23;;;9.30;;
20814;SDS011;10568;48.176;16.316;2023-03-01T05:19:29;19.53;;;8.73;;
20814;SDS011;10568;48.176;16.316;2023-03-01T05:21:56;23.10;;;9.60;;
20814;SDS011;10568;48.176;16.316;2023-03-01T05:24:37;15.83;;;8.87;;
20814;SDS011;10568;48.176;16.316;2023-03-01T05:27:03;17.70;;;9.03;;
20814;SDS011;10568;48.176;16.316;2023-03-01T05:29:30;19.13;;;9.70;;
20814;SDS011;10568;48.176;16.316;2023-03-01T05:32:00;18.90;;;8.77;;
20814;SDS011;10568;48.176;16.316;2023-03-01T05:34:28;20.10;;;9.90;;
20814;SDS011;10568;48.176;16.316;2023-03-01T05:36:57;21.50;;;10.53;;
20814;SDS011;10568;48.176;16.316;2023-03-01T05:39:24;20.67;;;10.17;;
20814;SDS011;10568;48.176;16.316;2023-03-01T05:41:52;18.17;;;9.63;;
20814;SDS011;10568;48.176;16.316;2023-03-01T05:44:19;17.37;;;8.83;;
20814;SDS011;10568;48.176;16.316;2023-03-01T05:46:45;23.87;;;11.13;;
20814;SDS011;10568;48.176;16.316;2023-03-01T05:49:11;18.07;;;9.17;;
20814;SDS011;10568;48.176;16.316;2023-03-01T05:51:41;19.80;;;9.60;;
20814;SDS011;10568;48.176;16.316;2023-03-01T05:54:08;21.30;;;9.60;;
20814;SDS011;10568;48.176;16.316;2023-03-01T05:56:35;19.47;;;10.27;;
20814;SDS011;10568;48.176;16.316;2023-03-01T05:59:02;20.93;;;9.07;;
20814;SDS011;10568;48.176;16.316;2023-03-01T06:01:30;18.73;;;8.67;;
20814;SDS011;10568;48.176;16.316;2023-03-01T06:03:56;25.23;;;10.67;;
20814;SDS011;10568;48.176;16.316;2023-03-01T06:06:22;24.07;;;12.47;;
20814;SDS011;10568;48.176;16.316;2023-03-01T06:08:49;21.50;;;11.10;;
20814;SDS011;10568;48.176;16.316;2023-03-01T06:11:15;22.70;;;10.23;;
20814;SDS011;10568;48.176;16.316;2023-03-01T06:13:42;18.40;;;9.37;;
20814;SDS011;10568;48.176;16.316;2023-03-01T06:16:08;20.90;;;9.30;;
20814;SDS011;10568;48.176;16.316;2023-03-01T06:18:35;20.70;;;9.93;;
20814;SDS011;10568;48.176;16.316;2023-03-01T06:21:02;21.83;;;10.33;;
20814;SDS011;10568;48.176;16.316;2023-03-01T06:23:28;23.27;;;12.10;;
20814;SDS011;10568;48.176;16.316;2023-03-01T06:25:54;20.63;;;9.87;;
20814;SDS011;10568;48.176;16.316;2023-03-01T06:28:19;20.23;;;9.63;;
20814;SDS011;10568;48.176;16.316;2023-03-01T06:30:46;17.17;;;9.43;;
20814;SDS011;10568;48.176;16.316;2023-03-01T06:33:12;23.17;;;9.57;;
20814;SDS011;10568;48.176;16.316;2023-03-01T06:35:39;22.33;;;10.77;;
20814;SDS011;10568;48.176;16.316;2023-03-01T06:38:05;17.53;;;8.90;;
20814;SDS011;10568;48.176;16.316;2023-03-01T06:40:31;21.57;;;10.10;;
20814;SDS011;10568;48.176;16.316;2023-03-01T06:42:57;23.97;;;10.70;;
20814;SDS011;10568;48.176;16.316;2023-03-01T06:45:24;22.67;;;10.43;;
20814;SDS011;10568;48.176;16.316;2023-03-01T06:47:50;20.53;;;11.00;;
20814;SDS011;10568;48.176;16.316;2023-03-01T06:50:16;25.17;;;11.73;;
20814;SDS011;10568;48.176;16.316;2023-03-01T06:52:43;22.23;;;9.90;;
20814;SDS011;10568;48.176;16.316;2023-03-01T06:55:10;23.43;;;11.67;;
20814;SDS011;10568;48.176;16.316;2023-03-01T06:57:39;23.23;;;12.10;;
20814;SDS011;10568;48.176;16.316;2023-03-01T07:00:05;22.17;;;11.57;;
20814;SDS011;10568;48.176;16.316;2023-03-01T07:02:32;26.40;;;11.93;;
20814;SDS011;10568;48.176;16.316;2023-03-01T07:04:57;25.40;;;11.37;;
20814;SDS011;10568;48.176;16.316;2023-03-01T07:07:23;21.47;;;11.13;;
20814;SDS011;10568;48.176;16.316;2023-03-01T07:09:49;22.47;;;11.47;;
20814;SDS011;10568;48.176;16.316;2023-03-01T07:12:15;22.20;;;10.40;;
20814;SDS011;10568;48.176;16.316;2023-03-01T07:14:43;25.30;;;10.70;;
20814;SDS011;10568;48.176;16.316;2023-03-01T07:17:09;21.57;;;11.47;;
20814;SDS011;10568;48.176;16.316;2023-03-01T07:19:34;24.57;;;11.53;;
20814;SDS011;10568;48.176;16.316;2023-03-01T07:22:00;22.67;;;10.67;;
20814;SDS011;10568;48.176;16.316;2023-03-01T07:24:26;20.57;;;10.60;;
20814;SDS011;10568;48.176;16.316;2023-03-01T07:26:52;22.83;;;11.27;;
20814;SDS011;10568;48.176;16.316;2023-03-01T07:29:18;22.43;;;12.37;;
20814;SDS011;10568;48.176;16.316;2023-03-01T07:31:44;24.67;;;10.23;;
20814;SDS011;10568;48.176;16.316;2023-03-01T07:34:10;20.50;;;10.63;;
20814;SDS011;10568;48.176;16.316;2023-03-01T07:36:36;21.70;;;10.07;;
20814;SDS011;10568;48.176;16.316;2023-03-01T07:39:03;23.63;;;11.00;;
20814;SDS011;10568;48.176;16.316;2023-03-01T07:41:28;23.53;;;10.93;;
20814;SDS011;10568;48.176;16.316;2023-03-01T07:43:54;19.03;;;9.97;;
20814;SDS011;10568;48.176;16.316;2023-03-01T07:46:20;21.03;;;10.60;;
20814;SDS011;10568;48.176;16.316;2023-03-01T07:48:46;23.23;;;10.70;;
20814;SDS011;10568;48.176;16.316;2023-03-01T07:51:12;23.63;;;10.03;;
20814;SDS011;10568;48.176;16.316;2023-03-01T07:53:38;20.63;;;10.27;;
20814;SDS011;10568;48.176;16.316;2023-03-01T07:56:05;24.20;;;10.57;;
20814;SDS011;10568;48.176;16.316;2023-03-01T07:58:37;23.73;;;11.63;;
20814;SDS011;10568;48.176;16.316;2023-03-01T08:01:06;22.90;;;12.13;;
20814;SDS011;10568;48.176;16.316;2023-03-01T08:03:34;28.00;;;13.03;;
20814;SDS011;10568;48.176;16.316;2023-03-01T08:06:04;23.33;;;12.57;;
20814;SDS011;10568;48.176;16.316;2023-03-01T08:08:32;24.17;;;13.20;;
20814;SDS011;10568;48.176;16.316;2023-03-01T08:10:59;20.77;;;11.80;;
20814;SDS011;10568;48.176;16.316;2023-03-01T08:13:26;25.40;;;11.77;;
20814;SDS011;10568;48.176;16.316;2023-03-01T08:15:52;27.17;;;12.23;;
20814;SDS011;10568;48.176;16.316;2023-03-01T08:18:19;23.07;;;11.17;;
20814;SDS011;10568;48.176;16.316;2023-03-01T08:20:45;27.00;;;12.63;;
20814;SDS011;10568;48.176;16.316;2023-03-01T08:23:12;24.23;;;11.73;;
20814;SDS011;10568;48.176;16.316;2023-03-01T08:25:38;21.93;;;11.17;;
20814;SDS011;10568;48.176;16.316;2023-03-01T08:28:04;25.53;;;12.07;;
20814;SDS011;10568;48.176;16.316;2023-03-01T08:30:31;25.47;;;12.87;;
20814;SDS011;10568;48.176;16.316;2023-03-01T08:32:57;27.93;;;12.90;;
20814;SDS011;10568;48.176;16.316;2023-03-01T08:35:22;24.50;;;12.90;;
20814;SDS011;10568;48.176;16.316;2023-03-01T08:37:48;25.03;;;12.47;;
20814;SDS011;10568;48.176;16.316;2023-03-01T08:40:14;27.23;;;13.30;;
20814;SDS011;10568;48.176;16.316;2023-03-01T08:42:41;26.50;;;13.07;;
20814;SDS011;10568;48.176;16.316;2023-03-01T08:45:10;31.77;;;13.27;;
20814;SDS011;10568;48.176;16.316;2023-03-01T08:47:36;26.53;;;12.57;;
20814;SDS011;10568;48.176;16.316;2023-03-01T08:50:02;27.27;;;13.30;;
20814;SDS011;10568;48.176;16.316;2023-03-01T08:52:29;27.03;;;12.80;;
20814;SDS011;10568;48.176;16.316;2023-03-01T08:54:55;26.07;;;13.37;;
20814;SDS011;10568;48.176;16.316;2023-03-01T08:57:21;25.17;;;12.93;;
20814;SDS011;10568;48.176;16.316;2023-03-01T08:59:47;26.30;;;13.23;;
20814;SDS011;10568;48.176;16.316;2023-03-01T09:02:16;27.93;;;12.97;;
20814;SDS011;10568;48.176;16.316;2023-03-01T09:04:43;24.60;;;12.03;;
20814;SDS011;10568;48.176;16.316;2023-03-01T09:07:09;25.30;;;12.57;;
20814;SDS011;10568;48.176;16.316;2023-03-01T09:09:36;25.60;;;11.63;;
20814;SDS011;10568;48.176;16.316;2023-03-01T09:12:02;21.30;;;10.47;;
20814;SDS011;10568;48.176;16.316;2023-03-01T09:14:29;24.20;;;11.73;;
20814;SDS011;10568;48.176;16.316;2023-03-01T09:16:54;23.03;;;10.63;;
20814;SDS011;10568;48.176;16.316;2023-03-01T09:19:20;21.77;;;10.60;;
20814;SDS011;10568;48.176;16.316;2023-03-01T09:21:46;22.57;;;10.80;;
20814;SDS011;10568;48.176;16.316;2023-03-01T09:24:20;23.90;;;12.30;;
20814;SDS011;10568;48.176;16.316;2023-03-01T09:26:47;23.70;;;10.50;;
20814;SDS011;10568;48.176;16.316;2023-03-01T09:29:13;22.57;;;12.70;;
20814;SDS011;10568;48.176;16.316;2023-03-01T09:31:40;24.77;;;11.67;;
20814;SDS011;10568;48.176;16.316;2023-03-01T09:34:06;24.43;;;12.00;;
20814;SDS011;10568;48.176;16.316;2023-03-01T09:36:32;23.73;;;12.73;;
20814;SDS011;10568;48.176;16.316;2023-03-01T09:38:58;22.13;;;12.27;;
20814;SDS011;10568;48.176;16.316;2023-03-01T09:44:20;22.30;;;11.00;;
20814;SDS011;10568;48.176;16.316;2023-03-01T09:46:52;21.83;;;12.13;;
20814;SDS011;10568;48.176;16.316;2023-03-01T09:49:19;24.17;;;12.17;;
20814;SDS011;10568;48.176;16.316;2023-03-01T09:51:55;23.10;;;11.90;;
20814;SDS011;10568;48.176;16.316;2023-03-01T09:54:40;24.03;;;12.13;;
20814;SDS011;10568;48.176;16.316;2023-03-01T09:59:52;20.87;;;10.37;;
20814;SDS011;10568;48.176;16.316;2023-03-01T10:02:26;21.10;;;11.13;;
20814;SDS011;10568;48.176;16.316;2023-03-01T10:10:31;23.70;;;11.87;;
20814;SDS011;10568;48.176;16.316;2023-03-01T10:13:00;17.70;;;11.07;;
20814;SDS011;10568;48.176;16.316;2023-03-01T10:15:41;18.10;;;10.53;;
20814;SDS011;10568;48.176;16.316;2023-03-01T10:18:14;20.07;;;11.13;;
20814;SDS011;10568;48.176;16.316;2023-03-01T10:23:27;18.17;;;9.83;;
20814;SDS011;10568;48.176;16.316;2023-03-01T10:31:01;20.87;;;10.37;;
20814;SDS011;10568;48.176;16.316;2023-03-01T10:33:37;19.90;;;10.60;;
20814;SDS011;10568;48.176;16.316;2023-03-01T10:36:07;21.77;;;10.33;;
20814;SDS011;10568;48.176;16.316;2023-03-01T10:39:16;18.17;;;10.37;;
20814;SDS011;10568;48.176;16.316;2023-03-01T10:41:23;21.27;;;11.00;;
20814;SDS011;10568;48.176;16.316;2023-03-01T10:43:54;18.77;;;10.57;;
20814;SDS011;10568;48.176;16.316;2023-03-01T10:46:23;16.87;;;10.50;;
20814;SDS011;10568;48.176;16.316;2023-03-01T10:52:23;20.17;;;11.20;;
20814;SDS011;10568;48.176;16.316;2023-03-01T10:54:53;16.70;;;10.50;;
20814;SDS011;10568;48.176;16.316;2023-03-01T10:57:27;17.03;;;9.77;;
20814;SDS011;10568;48.176;16.316;2023-03-01T11:02:48;15.17;;;8.37;;
20814;SDS011;10568;48.176;16.316;2023-03-01T11:05:34;15.70;;;9.20;;
20814;SDS011;10568;48.176;16.316;2023-03-01T11:08:00;16.13;;;9.50;;
20814;SDS011;10568;48.176;16.316;2023-03-01T11:10:32;15.03;;;9.10;;
20814;SDS011;10568;48.176;16.316;2023-03-01T11:13:13;13.33;;;8.77;;
20814;SDS011;10568;48.176;16.316;2023-03-01T11:15:42;16.17;;;9.43;;
20814;SDS011;10568;48.176;16.316;2023-03-01T11:18:23;13.67;;;8.57;;
20814;SDS011;10568;48.176;16.316;2023-03-01T11:20:50;18.17;;;9.70;;
20814;SDS011;10568;48.176;16.316;2023-03-01T11:23:20;18.07;;;9.70;;
20814;SDS011;10568;48.176;16.316;2023-03-01T11:25:54;14.87;;;8.77;;
20814;SDS011;10568;48.176;16.316;2023-03-01T11:28:22;15.20;;;8.77;;
20814;SDS011;10568;48.176;16.316;2023-03-01T11:36:07;14.10;;;8.97;;
20814;SDS011;10568;48.176;16.316;2023-03-01T11:38:43;18.57;;;9.23;;
20814;SDS011;10568;48.176;16.316;2023-03-01T11:56:51;16.77;;;8.37;;
20814;SDS011;10568;48.176;16.316;2023-03-01T11:59:56;17.67;;;9.10;;
20814;SDS011;10568;48.176;16.316;2023-03-01T12:16:30;16.60;;;9.23;;
20814;SDS011;10568;48.176;16.316;2023-03-01T12:28:09;14.20;;;8.60;;
20814;SDS011;10568;48.176;16.316;2023-03-01T12:31:23;15.10;;;8.13;;
20814;SDS011;10568;48.176;16.316;2023-03-01T12:40:01;15.03;;;8.23;;
20814;SDS011;10568;48.176;16.316;2023-03-01T12:42:55;15.40;;;7.93;;
20814;SDS011;10568;48.176;16.316;2023-03-01T12:51:11;14.47;;;8.77;;
20814;SDS011;10568;48.176;16.316;2023-03-01T12:53:47;14.60;;;8.73;;
20814;SDS011;10568;48.176;16.316;2023-03-01T12:56:18;17.27;;;8.43;;
20814;SDS011;10568;48.176;16.316;2023-03-01T13:01:19;15.40;;;9.43;;
20814;SDS011;10568;48.176;16.316;2023-03-01T13:06:55;14.17;;;8.53;;
20814;SDS011;10568;48.176;16.316;2023-03-01T13:12:02;13.70;;;7.80;;
20814;SDS011;10568;48.176;16.316;2023-03-01T13:16:56;15.63;;;9.13;;
20814;SDS011;10568;48.176;16.316;2023-03-01T13:19:23;14.43;;;8.87;;
20814;SDS011;10568;48.176;16.316;2023-03-01T13:21:52;13.27;;;8.33;;
20814;SDS011;10568;48.176;16.316;2023-03-01T13:24:29;15.20;;;8.30;;
20814;SDS011;10568;48.176;16.316;2023-03-01T13:29:55;16.60;;;8.77;;
20814;SDS011;10568;48.176;16.316;2023-03-01T13:32:31;15.13;;;8.63;;
20814;SDS011;10568;48.176;16.316;2023-03-01T13:37:26;14.90;;;9.23;;
20814;SDS011;10568;48.176;16.316;2023-03-01T13:39:58;14.03;;;8.17;;
20814;SDS011;10568;48.176;16.316;2023-03-01T13:45:45;13.37;;;8.67;;
20814;SDS011;10568;48.176;16.316;2023-03-01T13:47:59;15.07;;;9.43;;
20814;SDS011;10568;48.176;16.316;2023-03-01T13:50:33;14.90;;;9.03;;
20814;SDS011;10568;48.176;16.316;2023-03-01T13:53:04;13.03;;;7.97;;
20814;SDS011;10568;48.176;16.316;2023-03-01T13:58:18;13.83;;;8.47;;
20814;SDS011;10568;48.176;16.316;2023-03-01T14:03:24;14.70;;;9.17;;
20814;SDS011;10568;48.176;16.316;2023-03-01T14:06:13;14.87;;;9.20;;
20814;SDS011;10568;48.176;16.316;2023-03-01T14:08:38;18.13;;;9.53;;
20814;SDS011;10568;48.176;16.316;2023-03-01T14:24:29;16.73;;;8.90;;
20814;SDS011;10568;48.176;16.316;2023-03-01T14:27:00;14.87;;;8.40;;
20814;SDS011;10568;48.176;16.316;2023-03-01T14:29:34;16.27;;;8.50;;
20814;SDS011;10568;48.176;16.316;2023-03-01T14:32:18;16.27;;;8.90;;
20814;SDS011;10568;48.176;16.316;2023-03-01T14:34:50;14.60;;;8.67;;
20814;SDS011;10568;48.176;16.316;2023-03-01T14:37:24;16.17;;;9.27;;
20814;SDS011;10568;48.176;16.316;2023-03-01T14:39:52;16.00;;;8.77;;
20814;SDS011;10568;48.176;16.316;2023-03-01T14:42:19;13.93;;;8.40;;
20814;SDS011;10568;48.176;16.316;2023-03-01T14:44:48;15.97;;;9.20;;
20814;SDS011;10568;48.176;16.316;2023-03-01T14:47:37;12.93;;;8.40;;
20814;SDS011;10568;48.176;16.316;2023-03-01T14:52:45;15.93;;;9.10;;
20814;SDS011;10568;48.176;16.316;2023-03-01T14:55:15;15.30;;;8.73;;
20814;SDS011;10568;48.176;16.316;2023-03-01T14:58:10;15.07;;;8.53;;
20814;SDS011;10568;48.176;16.316;2023-03-01T15:00:38;15.00;;;8.13;;
20814;SDS011;10568;48.176;16.316;2023-03-01T15:03:13;16.53;;;9.60;;
20814;SDS011;10568;48.176;16.316;2023-03-01T15:05:44;16.13;;;8.73;;
20814;SDS011;10568;48.176;16.316;2023-03-01T15:08:16;16.67;;;9.30;;
20814;SDS011;10568;48.176;16.316;2023-03-01T15:10:55;17.73;;;9.00;;
20814;SDS011;10568;48.176;16.316;2023-03-01T15:13:24;15.43;;;8.53;;
20814;SDS011;10568;48.176;16.316;2023-03-01T15:15:53;16.27;;;9.73;;
20814;SDS011;10568;48.176;16.316;2023-03-01T15:18:32;16.27;;;9.60;;
20814;SDS011;10568;48.176;16.316;2023-03-01T15:21:10;16.53;;;8.50;;
20814;SDS011;10568;48.176;16.316;2023-03-01T15:24:37;17.13;;;9.40;;
20814;SDS011;10568;48.176;16.316;2023-03-01T15:26:54;15.77;;;9.07;;
20814;SDS011;10568;48.176;16.316;2023-03-01T15:29:24;17.47;;;9.43;;
20814;SDS011;10568;48.176;16.316;2023-03-01T15:32:04;17.93;;;9.73;;
20814;SDS011;10568;48.176;16.316;2023-03-01T15:34:32;19.13;;;10.23;;
20814;SDS011;10568;48.176;16.316;2023-03-01T15:37:02;16.17;;;9.73;;
20814;SDS011;10568;48.176;16.316;2023-03-01T15:39:35;20.67;;;11.40;;
20814;SDS011;10568;48.176;16.316;2023-03-01T15:45:10;18.07;;;10.30;;
20814;SDS011;10568;48.176;16.316;2023-03-01T15:48:04;16.97;;;10.20;;
20814;SDS011;10568;48.176;16.316;2023-03-01T15:50:40;17.83;;;9.73;;
20814;SDS011;10568;48.176;16.316;2023-03-01T15:53:10;18.30;;;9.97;;
20814;SDS011;10568;48.176;16.316;2023-03-01T15:55:39;20.87;;;10.03;;
20814;SDS011;10568;48.176;16.316;2023-03-01T16:00:35;16.53;;;8.97;;
20814;SDS011;10568;48.176;16.316;2023-03-01T16:03:01;17.33;;;9.97;;
20814;SDS011;10568;48.176;16.316;2023-03-01T16:05:31;19.87;;;9.33;;
20814;SDS011;10568;48.176;16.316;2023-03-01T16:07:58;16.20;;;9.33;;
20814;SDS011;10568;48.176;16.316;2023-03-01T16:10:25;18.73;;;9.77;;
20814;SDS011;10568;48.176;16.316;2023-03-01T16:12:52;16.97;;;9.83;;
20814;SDS011;10568;48.176;16.316;2023-03-01T16:15:20;20.53;;;9.83;;
20814;SDS011;10568;48.176;16.316;2023-03-01T16:17:50;19.23;;;10.73;;
20814;SDS011;10568;48.176;16.316;2023-03-01T16:20:17;21.07;;;10.13;;
20814;SDS011;10568;48.176;16.316;2023-03-01T16:22:43;20.93;;;9.83;;
20814;SDS011;10568;48.176;16.316;2023-03-01T16:25:10;20.63;;;10.17;;
20814;SDS011;10568;48.176;16.316;2023-03-01T16:27:37;20.07;;;10.37;;
20814;SDS011;10568;48.176;16.316;2023-03-01T16:30:04;19.10;;;10.00;;
20814;SDS011;10568;48.176;16.316;2023-03-01T16:32:31;16.67;;;8.90;;
20814;SDS011;10568;48.176;16.316;2023-03-01T16:34:57;16.63;;;9.13;;
20814;SDS011;10568;48.176;16.316;2023-03-01T16:37:23;16.87;;;9.63;;
20814;SDS011;10568;48.176;16.316;2023-03-01T16:39:49;16.83;;;10.13;;
20814;SDS011;10568;48.176;16.316;2023-03-01T16:42:17;17.63;;;9.33;;
20814;SDS011;10568;48.176;16.316;2023-03-01T16:44:43;19.20;;;9.80;;
20814;SDS011;10568;48.176;16.316;2023-03-01T16:47:09;21.67;;;10.73;;
20814;SDS011;10568;48.176;16.316;2023-03-01T16:49:34;19.20;;;9.50;;
20814;SDS011;10568;48.176;16.316;2023-03-01T16:52:00;18.80;;;10.63;;